sensor_id;sensor_type;location;lat;lon;timestamp;pressure;altitude;pressure_sealevel;temperature;humidity
75936;BME280;64614;32.062;34.834;2023-06-22T00:01:07;100464.88;;;27.82;57.76
75936;BME280;64614;32.062;34.834;2023-06-22T00:03:33;100469.25;;;27.83;58.41
75936;BME280;64614;32.062;34.834;2023-06-22T00:05:58;100472.78;;;27.83;58.33
75936;BME280;64614;32.062;34.834;2023-06-22T00:08:24;100467.28;;;27.83;58.22
75936;BME280;64614;32.062;34.834;2023-06-22T00:10:50;100464.06;;;27.81;58.18
75936;BME280;64614;32.062;34.834;2023-06-22T00:13:17;100466.81;;;27.81;57.97
75936;BME280;64614;32.062;34.834;2023-06-22T00:15:43;100470.41;;;27.82;58.01
75936;BME280;64614;32.062;34.834;2023-06-22T00:18:10;100467.53;;;27.78;58.01
75936;BME280;64614;32.062;34.834;2023-06-22T00:20:37;100469.56;;;27.81;57.92
75936;BME280;64614;32.062;34.834;2023-06-22T00:23:04;100466.81;;;27.81;58.37
75936;BME280;64614;32.062;34.834;2023-06-22T00:25:42;100466.03;;;27.81;58.20
75936;BME280;64614;32.062;34.834;2023-06-22T00:28:08;100466.41;;;27.79;58.17
75936;BME280;64614;32.062;34.834;2023-06-22T00:30:34;100463.19;;;27.77;58.19
75936;BME280;64614;32.062;34.834;2023-06-22T00:33:12;100471.56;;;27.81;57.80
75936;BME280;64614;32.062;34.834;2023-06-22T00:35:38;100458.44;;;27.78;57.96
75936;BME280;64614;32.062;34.834;2023-06-22T00:38:06;100466.81;;;27.81;57.79
75936;BME280;64614;32.062;34.834;2023-06-22T00:40:34;100464.41;;;27.80;57.91
75936;BME280;64614;32.062;34.834;2023-06-22T00:43:00;100459.25;;;27.78;57.97
75936;BME280;64614;32.062;34.834;2023-06-22T00:45:26;100460.88;;;27.79;57.88
75936;BME280;64614;32.062;34.834;2023-06-22T00:47:53;100457.75;;;27.81;58.08
75936;BME280;64614;32.062;34.834;2023-06-22T00:50:24;100463.28;;;27.81;58.09
75936;BME280;64614;32.062;34.834;2023-06-22T00:53:23;100456.97;;;27.80;58.21
75936;BME280;64614;32.062;34.834;2023-06-22T00:55:49;100456.50;;;27.78;57.94
75936;BME280;64614;32.062;34.834;2023-06-22T00:58:18;100458.44;;;27.78;58.08
75936;BME280;64614;32.062;34.834;2023-06-22T01:00:47;100463.97;;;27.78;57.85
75936;BME280;64614;32.062;34.834;2023-06-22T01:03:13;100459.97;;;27.75;57.74
75936;BME280;64614;32.062;34.834;2023-06-22T01:05:40;100466.63;;;27.74;58.08
75936;BME280;64614;32.062;34.834;2023-06-22T01:11:13;100463.88;;;27.74;57.55
75936;BME280;64614;32.062;34.834;2023-06-22T01:13:53;100472.16;;;27.74;57.99
75936;BME280;64614;32.062;34.834;2023-06-22T01:16:23;100481.56;;;27.73;58.16
75936;BME280;64614;32.062;34.834;2023-06-22T01:18:52;100477.25;;;27.72;58.25
75936;BME280;64614;32.062;34.834;2023-06-22T01:21:21;100477.94;;;27.69;57.87
75936;BME280;64614;32.062;34.834;2023-06-22T01:24:18;100469.19;;;27.67;57.89
75936;BME280;64614;32.062;34.834;2023-06-22T01:27:22;100479.53;;;27.70;58.17
75936;BME280;64614;32.062;34.834;2023-06-22T01:29:55;100483.53;;;27.73;58.36
75936;BME280;64614;32.062;34.834;2023-06-22T01:32:34;100480.31;;;27.71;58.26
75936;BME280;64614;32.062;34.834;2023-06-22T01:35:04;100474.03;;;27.70;57.94
75936;BME280;64614;32.062;34.834;2023-06-22T01:37:32;100477.94;;;27.69;58.24
75936;BME280;64614;32.062;34.834;2023-06-22T01:40:01;100474.47;;;27.72;58.12
75936;BME280;64614;32.062;34.834;2023-06-22T01:42:30;100475.97;;;27.70;58.35
75936;BME280;64614;32.062;34.834;2023-06-22T01:45:04;100481.16;;;27.71;57.84
75936;BME280;64614;32.062;34.834;2023-06-22T01:47:30;100481.16;;;27.71;58.14
75936;BME280;64614;32.062;34.834;2023-06-22T01:49:57;100483.91;;;27.71;58.07
75936;BME280;64614;32.062;34.834;2023-06-22T01:52:22;100489.56;;;27.62;57.70
75936;BME280;64614;32.062;34.834;2023-06-22T01:54:48;100487.84;;;27.58;57.23
75936;BME280;64614;32.062;34.834;2023-06-22T01:57:14;100483.50;;;27.57;57.12
75936;BME280;64614;32.062;34.834;2023-06-22T02:00:09;100490.97;;;27.56;57.65
75936;BME280;64614;32.062;34.834;2023-06-22T02:02:52;100491.66;;;27.53;58.09
75936;BME280;64614;32.062;34.834;2023-06-22T02:05:19;100492.91;;;27.56;58.38
75936;BME280;64614;32.062;34.834;2023-06-22T02:07:52;100494.88;;;27.55;57.94
75936;BME280;64614;32.062;34.834;2023-06-22T02:10:24;100501.19;;;27.56;58.57
75936;BME280;64614;32.062;34.834;2023-06-22T02:12:51;100489.38;;;27.55;58.59
75936;BME280;64614;32.062;34.834;2023-06-22T02:15:18;100493.28;;;27.54;58.03
75936;BME280;64614;32.062;34.834;2023-06-22T02:17:44;100494.69;;;27.48;58.10
75936;BME280;64614;32.062;34.834;2023-06-22T02:20:16;100499.59;;;27.42;57.64
75936;BME280;64614;32.062;34.834;2023-06-22T02:22:42;100501.44;;;27.38;57.88
75936;BME280;64614;32.062;34.834;2023-06-22T02:25:08;100491.59;;;27.37;58.20
75936;BME280;64614;32.062;34.834;2023-06-22T02:27:33;100494.34;;;27.37;58.02
75936;BME280;64614;32.062;34.834;2023-06-22T02:30:01;100496.75;;;27.39;58.79
75936;BME280;64614;32.062;34.834;2023-06-22T02:32:27;100496.28;;;27.36;58.52
75936;BME280;64614;32.062;34.834;2023-06-22T02:34:53;100503.41;;;27.37;58.74
75936;BME280;64614;32.062;34.834;2023-06-22T02:37:19;100500.66;;;27.37;58.82
75936;BME280;64614;32.062;34.834;2023-06-22T02:39:44;100503.88;;;27.40;58.73
75936;BME280;64614;32.062;34.834;2023-06-22T02:42:10;100492.38;;;27.37;58.36
75936;BME280;64614;32.062;34.834;2023-06-22T02:44:36;100499.97;;;27.41;58.24
75936;BME280;64614;32.062;34.834;2023-06-22T02:47:02;100501.91;;;27.40;58.57
75936;BME280;64614;32.062;34.834;2023-06-22T02:49:28;100502.34;;;27.42;58.18
75936;BME280;64614;32.062;34.834;2023-06-22T02:51:54;100503.28;;;27.46;58.28
75936;BME280;64614;32.062;34.834;2023-06-22T02:54:20;100495.81;;;27.47;58.15
75936;BME280;64614;32.062;34.834;2023-06-22T02:56:46;100501.81;;;27.49;58.36
75936;BME280;64614;32.062;34.834;2023-06-22T02:59:13;100493.97;;;27.51;58.55
75936;BME280;64614;32.062;34.834;2023-06-22T03:01:39;100504.19;;;27.50;58.31
75936;BME280;64614;32.062;34.834;2023-06-22T03:04:10;100500.28;;;27.51;58.17
75936;BME280;64614;32.062;34.834;2023-06-22T03:06:36;100501.91;;;27.52;58.67
75936;BME280;64614;32.062;34.834;2023-06-22T03:09:03;100496.38;;;27.52;58.18
75936;BME280;64614;32.062;34.834;2023-06-22T03:11:31;100503.50;;;27.54;58.18
75936;BME280;64614;32.062;34.834;2023-06-22T03:13:56;100501.53;;;27.54;58.23
75936;BME280;64614;32.062;34.834;2023-06-22T03:16:22;100514.97;;;27.56;58.43
75936;BME280;64614;32.062;34.834;2023-06-22T03:18:48;100512.22;;;27.56;58.07
75936;BME280;64614;32.062;34.834;2023-06-22T03:21:14;100521.31;;;27.56;58.45
75936;BME280;64614;32.062;34.834;2023-06-22T03:23:41;100520.97;;;27.58;58.36
75936;BME280;64614;32.062;34.834;2023-06-22T03:26:08;100523.72;;;27.58;58.56
75936;BME280;64614;32.062;34.834;2023-06-22T03:28:33;100518.56;;;27.56;58.38
75936;BME280;64614;32.062;34.834;2023-06-22T03:30:59;100523.25;;;27.56;58.76
75936;BME280;64614;32.062;34.834;2023-06-22T03:33:25;100517.72;;;27.56;58.45
75936;BME280;64614;32.062;34.834;2023-06-22T03:35:50;100520.50;;;27.56;58.73
75936;BME280;64614;32.062;34.834;2023-06-22T03:38:17;100517.31;;;27.54;58.90
75936;BME280;64614;32.062;34.834;2023-06-22T03:40:43;100525.22;;;27.55;59.03
75936;BME280;64614;32.062;34.834;2023-06-22T03:43:08;100523.25;;;27.56;58.99
75936;BME280;64614;32.062;34.834;2023-06-22T03:45:34;100525.56;;;27.54;58.96
75936;BME280;64614;32.062;34.834;2023-06-22T03:48:00;100527.19;;;27.55;58.47
75936;BME280;64614;32.062;34.834;2023-06-22T03:50:27;100541.78;;;27.55;58.67
75936;BME280;64614;32.062;34.834;2023-06-22T03:52:52;100537.41;;;27.54;58.48
75936;BME280;64614;32.062;34.834;2023-06-22T03:55:19;100541.31;;;27.53;58.97
75936;BME280;64614;32.062;34.834;2023-06-22T03:57:45;100539.00;;;27.55;58.35
75936;BME280;64614;32.062;34.834;2023-06-22T04:00:11;100536.63;;;27.54;58.67
75936;BME280;64614;32.062;34.834;2023-06-22T04:02:37;100538.91;;;27.51;58.89
75936;BME280;64614;32.062;34.834;2023-06-22T04:05:03;100534.53;;;27.50;58.39
75936;BME280;64614;32.062;34.834;2023-06-22T04:07:29;100535.34;;;27.51;58.45
75936;BME280;64614;32.062;34.834;2023-06-22T04:09:54;100542.81;;;27.50;58.29
75936;BME280;64614;32.062;34.834;2023-06-22T04:12:20;100534.53;;;27.50;58.24
75936;BME280;64614;32.062;34.834;2023-06-22T04:14:46;100536.16;;;27.51;58.51
75936;BME280;64614;32.062;34.834;2023-06-22T04:17:11;100536.16;;;27.51;57.86
75936;BME280;64614;32.062;34.834;2023-06-22T04:19:39;100533.41;;;27.51;58.27
75936;BME280;64614;32.062;34.834;2023-06-22T04:22:05;100545.22;;;27.52;58.32
75936;BME280;64614;32.062;34.834;2023-06-22T04:24:35;100537.31;;;27.50;57.94
75936;BME280;64614;32.062;34.834;2023-06-22T04:27:01;100533.41;;;27.51;57.87
75936;BME280;64614;32.062;34.834;2023-06-22T04:29:29;100530.28;;;27.53;57.76
75936;BME280;64614;32.062;34.834;2023-06-22T04:31:58;100533.41;;;27.51;58.41
75936;BME280;64614;32.062;34.834;2023-06-22T04:34:28;100532.25;;;27.52;58.19
75936;BME280;64614;32.062;34.834;2023-06-22T04:36:54;100531.88;;;27.54;57.93
75936;BME280;64614;32.062;34.834;2023-06-22T04:39:20;100538.22;;;27.55;58.10
75936;BME280;64614;32.062;34.834;2023-06-22T04:41:46;100535.00;;;27.52;58.31
75936;BME280;64614;32.062;34.834;2023-06-22T04:44:13;100535.47;;;27.55;58.08
75936;BME280;64614;32.062;34.834;2023-06-22T04:46:58;100545.69;;;27.54;57.69
75936;BME280;64614;32.062;34.834;2023-06-22T04:49:30;100539.81;;;27.56;57.81
75936;BME280;64614;32.062;34.834;2023-06-22T04:52:00;100534.28;;;27.56;58.13
75936;BME280;64614;32.062;34.834;2023-06-22T04:54:27;100538.66;;;27.57;57.60
75936;BME280;64614;32.062;34.834;2023-06-22T04:56:52;100534.28;;;27.56;57.58
75936;BME280;64614;32.062;34.834;2023-06-22T04:59:26;100535.09;;;27.56;58.04
75936;BME280;64614;32.062;34.834;2023-06-22T05:01:58;100542.13;;;27.54;57.67
75936;BME280;64614;32.062;34.834;2023-06-22T05:04:24;100538.22;;;27.55;57.69
75936;BME280;64614;32.062;34.834;2023-06-22T05:06:51;100535.78;;;27.53;57.73
75936;BME280;64614;32.062;34.834;2023-06-22T05:09:20;100543.28;;;27.52;57.85
75936;BME280;64614;32.062;34.834;2023-06-22T05:11:47;100537.31;;;27.50;57.94
75936;BME280;64614;32.062;34.834;2023-06-22T05:14:13;100538.44;;;27.49;58.09
75936;BME280;64614;32.062;34.834;2023-06-22T05:16:41;100538.91;;;27.51;57.96
75936;BME280;64614;32.062;34.834;2023-06-22T05:19:07;100537.31;;;27.50;57.87
75936;BME280;64614;32.062;34.834;2023-06-22T05:21:33;100532.94;;;27.49;57.60
75936;BME280;64614;32.062;34.834;2023-06-22T05:23:59;100527.78;;;27.48;58.03
75936;BME280;64614;32.062;34.834;2023-06-22T05:26:34;100535.69;;;27.49;57.67
75936;BME280;64614;32.062;34.834;2023-06-22T05:29:01;100540.41;;;27.49;58.11
75936;BME280;64614;32.062;34.834;2023-06-22T05:31:28;100528.09;;;27.46;57.63
75936;BME280;64614;32.062;34.834;2023-06-22T05:33:54;100533.63;;;27.46;58.03
75936;BME280;64614;32.062;34.834;2023-06-22T05:36:21;100544.31;;;27.48;57.55
75936;BME280;64614;32.062;34.834;2023-06-22T05:38:51;100540.41;;;27.49;57.45
75936;BME280;64614;32.062;34.834;2023-06-22T05:41:17;100532.56;;;27.51;57.67
75936;BME280;64614;32.062;34.834;2023-06-22T05:43:43;100534.53;;;27.50;57.43
75936;BME280;64614;32.062;34.834;2023-06-22T05:46:08;100535.78;;;27.53;58.08
75936;BME280;64614;32.062;34.834;2023-06-22T05:48:34;100536.63;;;27.54;58.08
75936;BME280;64614;32.062;34.834;2023-06-22T05:51:00;100539.00;;;27.55;57.78
75936;BME280;64614;32.062;34.834;2023-06-22T05:53:25;100541.41;;;27.57;57.45
75936;BME280;64614;32.062;34.834;2023-06-22T05:55:51;100541.09;;;27.58;57.84
75936;BME280;64614;32.062;34.834;2023-06-22T05:58:17;100543.03;;;27.58;57.58
75936;BME280;64614;32.062;34.834;2023-06-22T06:00:45;100537.97;;;27.60;57.89
75936;BME280;64614;32.062;34.834;2023-06-22T06:03:12;100542.78;;;27.63;57.66
75936;BME280;64614;32.062;34.834;2023-06-22T06:05:42;100538.53;;;27.65;57.39
75936;BME280;64614;32.062;34.834;2023-06-22T06:08:08;100536.09;;;27.64;57.61
75936;BME280;64614;32.062;34.834;2023-06-22T06:10:36;100541.75;;;27.67;57.67
75936;BME280;64614;32.062;34.834;2023-06-22T06:13:02;100538.16;;;27.67;57.77
75936;BME280;64614;32.062;34.834;2023-06-22T06:15:30;100537.03;;;27.68;57.74
75936;BME280;64614;32.062;34.834;2023-06-22T06:17:56;100544.59;;;27.71;57.24
75936;BME280;64614;32.062;34.834;2023-06-22T06:20:23;100543.47;;;27.72;57.15
75936;BME280;64614;32.062;34.834;2023-06-22T06:22:50;100547.47;;;27.75;57.67
75936;BME280;64614;32.062;34.834;2023-06-22T06:25:16;100551.84;;;27.76;57.37
75936;BME280;64614;32.062;34.834;2023-06-22T06:27:42;100546.75;;;27.78;57.41
75936;BME280;64614;32.062;34.834;2023-06-22T06:30:10;100536.53;;;27.78;57.54
75936;BME280;64614;32.062;34.834;2023-06-22T06:32:36;100539.75;;;27.80;57.56
75936;BME280;64614;32.062;34.834;2023-06-22T06:35:01;100539.75;;;27.80;57.09
75936;BME280;64614;32.062;34.834;2023-06-22T06:37:27;100536.63;;;27.82;57.08
75936;BME280;64614;32.062;34.834;2023-06-22T06:39:53;100534.31;;;27.84;57.52
75936;BME280;64614;32.062;34.834;2023-06-22T06:42:19;100538.34;;;27.87;57.35
75936;BME280;64614;32.062;34.834;2023-06-22T06:44:45;100530.84;;;27.87;56.92
75936;BME280;64614;32.062;34.834;2023-06-22T06:47:10;100532.13;;;27.90;57.05
75936;BME280;64614;32.062;34.834;2023-06-22T06:49:36;100535.31;;;27.92;57.03
75936;BME280;64614;32.062;34.834;2023-06-22T06:52:02;100530.59;;;27.92;57.04
75936;BME280;64614;32.062;34.834;2023-06-22T06:54:28;100531.41;;;27.93;57.08
75936;BME280;64614;32.062;34.834;2023-06-22T06:56:53;100535.75;;;27.94;57.02
75936;BME280;64614;32.062;34.834;2023-06-22T06:59:19;100529.09;;;27.95;56.97
75936;BME280;64614;32.062;34.834;2023-06-22T07:01:45;100529.56;;;27.97;56.89
75936;BME280;64614;32.062;34.834;2023-06-22T07:04:10;100538.63;;;27.97;56.75
75936;BME280;64614;32.062;34.834;2023-06-22T07:06:36;100530.81;;;27.99;57.18
75936;BME280;64614;32.062;34.834;2023-06-22T07:09:03;100541.03;;;27.99;56.82
75936;BME280;64614;32.062;34.834;2023-06-22T07:11:28;100534.34;;;28.00;57.15
75936;BME280;64614;32.062;34.834;2023-06-22T07:13:54;100535.97;;;28.01;56.65
75936;BME280;64614;32.062;34.834;2023-06-22T07:16:20;100526.06;;;28.00;57.33
75936;BME280;64614;32.062;34.834;2023-06-22T07:18:45;100540.31;;;28.02;57.05
75936;BME280;64614;32.062;34.834;2023-06-22T07:21:11;100539.19;;;28.03;56.97
75936;BME280;64614;32.062;34.834;2023-06-22T07:23:37;100539.97;;;28.04;57.09
75936;BME280;64614;32.062;34.834;2023-06-22T07:26:02;100532.50;;;28.04;56.99
75936;BME280;64614;32.062;34.834;2023-06-22T07:28:28;100536.88;;;28.05;56.67
75936;BME280;64614;32.062;34.834;2023-06-22T07:30:57;100529.06;;;28.07;56.74
75936;BME280;64614;32.062;34.834;2023-06-22T07:33:22;100527.09;;;28.08;56.50
75936;BME280;64614;32.062;34.834;2023-06-22T07:35:48;100519.16;;;28.06;56.89
75936;BME280;64614;32.062;34.834;2023-06-22T07:38:16;100524.34;;;28.08;56.62
75936;BME280;64614;32.062;34.834;2023-06-22T07:40:42;100522.38;;;28.08;56.82
75936;BME280;64614;32.062;34.834;2023-06-22T07:43:07;100525.97;;;28.09;56.67
75936;BME280;64614;32.062;34.834;2023-06-22T07:45:33;100521.22;;;28.09;56.54
75936;BME280;64614;32.062;34.834;2023-06-22T07:48:01;100529.50;;;28.09;56.78
75936;BME280;64614;32.062;34.834;2023-06-22T07:50:26;100522.84;;;28.10;56.54
75936;BME280;64614;32.062;34.834;2023-06-22T07:52:52;100523.28;;;28.12;56.33
75936;BME280;64614;32.062;34.834;2023-06-22T07:55:18;100518.56;;;28.13;56.46
75936;BME280;64614;32.062;34.834;2023-06-22T07:57:44;100520.88;;;28.11;56.61
75936;BME280;64614;32.062;34.834;2023-06-22T08:00:10;100519.38;;;28.13;56.70
75936;BME280;64614;32.062;34.834;2023-06-22T08:02:40;100519.38;;;28.13;56.14
75936;BME280;64614;32.062;34.834;2023-06-22T08:05:10;100519.38;;;28.13;56.10
75936;BME280;64614;32.062;34.834;2023-06-22T08:07:37;100532.03;;;28.14;56.71
75936;BME280;64614;32.062;34.834;2023-06-22T08:10:04;100519.38;;;28.13;56.12
75936;BME280;64614;32.062;34.834;2023-06-22T08:12:30;100520.97;;;28.14;56.08
75936;BME280;64614;32.062;34.834;2023-06-22T08:14:55;100525.34;;;28.16;56.33
75936;BME280;64614;32.062;34.834;2023-06-22T08:17:26;100526.50;;;28.14;56.45
75936;BME280;64614;32.062;34.834;2023-06-22T08:19:51;100533.63;;;28.16;56.05
75936;BME280;64614;32.062;34.834;2023-06-22T08:22:17;100526.50;;;28.14;55.94
75936;BME280;64614;32.062;34.834;2023-06-22T08:24:43;100521.41;;;28.17;56.11
75936;BME280;64614;32.062;34.834;2023-06-22T08:27:10;100517.06;;;28.16;56.21
75936;BME280;64614;32.062;34.834;2023-06-22T08:29:41;100524.16;;;28.17;56.25
75936;BME280;64614;32.062;34.834;2023-06-22T08:32:10;100521.41;;;28.17;55.91
75936;BME280;64614;32.062;34.834;2023-06-22T08:34:36;100525.78;;;28.18;56.18
75936;BME280;64614;32.062;34.834;2023-06-22T08:37:02;100517.50;;;28.18;56.32
75936;BME280;64614;32.062;34.834;2023-06-22T08:39:32;100519.09;;;28.19;56.09
75936;BME280;64614;32.062;34.834;2023-06-22T08:41:57;100523.84;;;28.18;55.79
75936;BME280;64614;32.062;34.834;2023-06-22T08:44:23;100518.66;;;28.17;55.93
75936;BME280;64614;32.062;34.834;2023-06-22T08:46:49;100530.50;;;28.17;56.06
75936;BME280;64614;32.062;34.834;2023-06-22T08:49:17;100522.69;;;28.19;56.12
75936;BME280;64614;32.062;34.834;2023-06-22T08:51:43;100518.31;;;28.18;55.75
75936;BME280;64614;32.062;34.834;2023-06-22T08:54:11;100514.72;;;28.18;56.04
75936;BME280;64614;32.062;34.834;2023-06-22T08:56:36;100509.22;;;28.18;56.09
75936;BME280;64614;32.062;34.834;2023-06-22T08:59:02;100513.59;;;28.19;55.61
75936;BME280;64614;32.062;34.834;2023-06-22T09:01:27;100504.50;;;28.18;55.73
75936;BME280;64614;32.062;34.834;2023-06-22T09:03:53;100500.59;;;28.19;55.76
75936;BME280;64614;32.062;34.834;2023-06-22T09:06:23;100507.59;;;28.17;55.24
75936;BME280;64614;32.062;34.834;2023-06-22T09:08:49;100501.66;;;28.14;54.81
75936;BME280;64614;32.062;34.834;2023-06-22T09:11:15;100512.25;;;28.12;55.06
75936;BME280;64614;32.062;34.834;2023-06-22T09:18:53;100510.19;;;28.09;55.00
75936;BME280;64614;32.062;34.834;2023-06-22T09:27:04;100502.59;;;28.06;54.83
75936;BME280;64614;32.062;34.834;2023-06-22T09:31:55;100500.28;;;28.08;55.09
75936;BME280;64614;32.062;34.834;2023-06-22T09:34:21;100499.13;;;28.09;54.88
75936;BME280;64614;32.062;34.834;2023-06-22T09:36:47;100488.09;;;28.09;55.20
75936;BME280;64614;32.062;34.834;2023-06-22T09:39:13;100485.69;;;28.08;54.22
75936;BME280;64614;32.062;34.834;2023-06-22T09:41:39;100479.88;;;27.97;54.15
75936;BME280;64614;32.062;34.834;2023-06-22T09:44:04;100478.63;;;27.94;54.38
75936;BME280;64614;32.062;34.834;2023-06-22T09:46:30;100477.81;;;27.94;54.97
75936;BME280;64614;32.062;34.834;2023-06-22T09:48:56;100484.56;;;27.96;55.11
75936;BME280;64614;32.062;34.834;2023-06-22T09:51:24;100481.72;;;27.93;54.41
75936;BME280;64614;32.062;34.834;2023-06-22T09:53:51;100481.06;;;27.83;54.26
75936;BME280;64614;32.062;34.834;2023-06-22T09:56:16;100462.03;;;27.78;54.60
75936;BME280;64614;32.062;34.834;2023-06-22T09:58:42;100476.50;;;27.75;54.71
75936;BME280;64614;32.062;34.834;2023-06-22T10:01:08;100476.19;;;27.77;55.39
75936;BME280;64614;32.062;34.834;2023-06-22T10:03:36;100475.38;;;27.76;55.27
75936;BME280;64614;32.062;34.834;2023-06-22T10:11:12;100466.69;;;27.62;54.46
75936;BME280;64614;32.062;34.834;2023-06-22T10:13:37;100470.59;;;27.61;54.83
75936;BME280;64614;32.062;34.834;2023-06-22T10:16:06;100465.88;;;27.61;55.87
75936;BME280;64614;32.062;34.834;2023-06-22T10:18:32;100466.81;;;27.65;55.45
75936;BME280;64614;32.062;34.834;2023-06-22T10:20:58;100462.78;;;27.63;55.65
75936;BME280;64614;32.062;34.834;2023-06-22T10:23:25;100474.16;;;27.61;55.43
75936;BME280;64614;32.062;34.834;2023-06-22T10:25:54;100464.19;;;27.57;55.01
75936;BME280;64614;32.062;34.834;2023-06-22T10:28:19;100458.56;;;27.53;54.93
75936;BME280;64614;32.062;34.834;2023-06-22T10:30:45;100458.91;;;27.51;55.71
75936;BME280;64614;32.062;34.834;2023-06-22T10:33:11;100462.94;;;27.54;55.39
75936;BME280;64614;32.062;34.834;2023-06-22T10:35:37;100468.09;;;27.56;56.06
75936;BME280;64614;32.062;34.834;2023-06-22T10:38:03;100463.75;;;27.55;55.83
75936;BME280;64614;32.062;34.834;2023-06-22T10:40:31;100466.06;;;27.52;55.67
75936;BME280;64614;32.062;34.834;2023-06-22T10:42:56;100461.13;;;27.46;55.11
75936;BME280;64614;32.062;34.834;2023-06-22T10:45:22;100462.94;;;27.42;55.19
75936;BME280;64614;32.062;34.834;2023-06-22T10:47:48;100461.34;;;27.41;55.83
75936;BME280;64614;32.062;34.834;2023-06-22T10:50:15;100452.72;;;27.42;55.97
75936;BME280;64614;32.062;34.834;2023-06-22T10:52:41;100457.13;;;27.43;56.27
75936;BME280;64614;32.062;34.834;2023-06-22T10:55:08;100463.09;;;27.45;56.16
75936;BME280;64614;32.062;34.834;2023-06-22T10:57:34;100457.56;;;27.45;56.12
75936;BME280;64614;32.062;34.834;2023-06-22T10:59:59;100459.75;;;27.40;55.77
75936;BME280;64614;32.062;34.834;2023-06-22T11:02:25;100458.03;;;27.35;55.11
75936;BME280;64614;32.062;34.834;2023-06-22T11:04:53;100455.59;;;27.33;55.91
75936;BME280;64614;32.062;34.834;2023-06-22T11:07:19;100452.53;;;27.35;56.44
75936;BME280;64614;32.062;34.834;2023-06-22T11:09:44;100452.97;;;27.37;56.02
75936;BME280;64614;32.062;34.834;2023-06-22T11:12:10;100443.19;;;27.40;56.60
75936;BME280;64614;32.062;34.834;2023-06-22T11:14:36;100444.81;;;27.41;56.07
75936;BME280;64614;32.062;34.834;2023-06-22T11:17:01;100438.13;;;27.42;56.29
75936;BME280;64614;32.062;34.834;2023-06-22T11:19:27;100444.94;;;27.44;56.35
75936;BME280;64614;32.062;34.834;2023-06-22T11:21:53;100447.34;;;27.46;56.16
75936;BME280;64614;32.062;34.834;2023-06-22T11:24:19;100437.09;;;27.46;56.53
75936;BME280;64614;32.062;34.834;2023-06-22T11:26:44;100435.94;;;27.47;56.37
75936;BME280;64614;32.062;34.834;2023-06-22T11:29:10;100445.50;;;27.50;56.44
75936;BME280;64614;32.062;34.834;2023-06-22T11:31:36;100440.41;;;27.52;56.58
75936;BME280;64614;32.062;34.834;2023-06-22T11:34:02;100443.97;;;27.52;56.48
75936;BME280;64614;32.062;34.834;2023-06-22T11:36:29;100449.50;;;27.52;56.39
75936;BME280;64614;32.062;34.834;2023-06-22T11:38:54;100444.88;;;27.57;56.30
75936;BME280;64614;32.062;34.834;2023-06-22T11:41:20;100443.72;;;27.58;56.93
75936;BME280;64614;32.062;34.834;2023-06-22T11:43:45;100435.91;;;27.60;56.83
75936;BME280;64614;32.062;34.834;2023-06-22T11:46:11;100440.28;;;27.61;56.37
75936;BME280;64614;32.062;34.834;2023-06-22T11:48:37;100440.00;;;27.66;56.71
75936;BME280;64614;32.062;34.834;2023-06-22T11:51:03;100436.91;;;27.67;56.74
75936;BME280;64614;32.062;34.834;2023-06-22T11:53:29;100443.69;;;27.70;56.67
75936;BME280;64614;32.062;34.834;2023-06-22T11:55:54;100437.00;;;27.71;56.93
75936;BME280;64614;32.062;34.834;2023-06-22T11:58:20;100427.56;;;27.72;56.68
75936;BME280;64614;32.062;34.834;2023-06-22T12:00:47;100432.72;;;27.74;57.01
75936;BME280;64614;32.062;34.834;2023-06-22T12:03:13;100432.38;;;27.75;56.77
75936;BME280;64614;32.062;34.834;2023-06-22T12:05:51;100426.06;;;27.75;56.67
75936;BME280;64614;32.062;34.834;2023-06-22T12:11:39;100419.22;;;27.84;56.94
75936;BME280;64614;32.062;34.834;2023-06-22T12:14:05;100420.38;;;27.83;56.94
75936;BME280;64614;32.062;34.834;2023-06-22T12:16:31;100430.25;;;27.84;56.63
75936;BME280;64614;32.062;34.834;2023-06-22T12:18:56;100433.47;;;27.87;56.50
75936;BME280;64614;32.062;34.834;2023-06-22T12:21:22;100429.56;;;27.88;56.71
75936;BME280;64614;32.062;34.834;2023-06-22T12:23:48;100430.00;;;27.90;56.47
75936;BME280;64614;32.062;34.834;2023-06-22T12:26:13;100429.19;;;27.89;56.43
75936;BME280;64614;32.062;34.834;2023-06-22T12:28:39;100426.88;;;27.91;56.31
75936;BME280;64614;32.062;34.834;2023-06-22T12:31:05;100412.28;;;27.91;56.57
75936;BME280;64614;32.062;34.834;2023-06-22T12:33:30;100412.72;;;27.93;56.49
75936;BME280;64614;32.062;34.834;2023-06-22T12:35:56;100409.50;;;27.91;56.09
75936;BME280;64614;32.062;34.834;2023-06-22T12:38:28;100418.34;;;27.96;56.23
75936;BME280;64614;32.062;34.834;2023-06-22T12:40:54;100415.94;;;27.95;56.29
75936;BME280;64614;32.062;34.834;2023-06-22T12:43:20;100417.19;;;27.97;55.99
75936;BME280;64614;32.062;34.834;2023-06-22T12:45:45;100410.06;;;27.96;56.16
75936;BME280;64614;32.062;34.834;2023-06-22T12:48:11;100418.34;;;27.96;56.35
75936;BME280;64614;32.062;34.834;2023-06-22T12:50:38;100419.47;;;27.95;56.35
75936;BME280;64614;32.062;34.834;2023-06-22T12:53:03;100419.16;;;27.97;56.13
75936;BME280;64614;32.062;34.834;2023-06-22T12:55:31;100410.88;;;27.97;55.98
75936;BME280;64614;32.062;34.834;2023-06-22T12:57:57;100417.53;;;27.96;56.36
75936;BME280;64614;32.062;34.834;2023-06-22T13:00:23;100430.19;;;27.97;55.93
75936;BME280;64614;32.062;34.834;2023-06-22T13:02:48;100415.94;;;27.95;55.89
75936;BME280;64614;32.062;34.834;2023-06-22T13:05:15;100419.47;;;27.95;55.84